Airfield :
LOGIN :

Register | Disclaimer

   EN    FR    IT 

 










Legend :    VFR   Marginal VFR   IFR   Intensive IFR   Very Intensive IFR
Visi :
Ceiling :
>= 8 km
>= 3000ft
5 to 8 km
1000 to 3000 ft
1500m to 5 km
500 to 1000 ft
800 to 1500m
200 to 500 ft
< 800m
< 200 ft
Symbols :   Thunderstorms  Fog  Heavy snow  Heavy precipitations  Wind > 20 kt
SIGMETs :     Misc.  Thunderstorms  Icing  Turbulence  Mountain Waves  Volcanic Ashes







- Airport Elevation : 370 ft


EBBE - Beauvechain AB

CURRENT METAR :
  • 260855Z 25013KT 9999 FEW024 BKN030 11/04 Q1018 BLU BLU

EXPIRED METARs :
  • 260825Z 27011KT 9999 FEW020 SCT025 BKN030 11/05 Q1017 BLU BLU TEMPO WHT
  • 260805Z 26010KT 9999 FEW020 SCT025 BKN030 09/04 Q1017 BLU BLU TEMPO WHT
  • 260755Z 26011KT 9999 FEW020 SCT024 BKN030 09/05 Q1017 WHT BLU TEMPO WHT
  • 260725Z 25013KT 9999 FEW018 SCT020 BKN030 09/04 Q1017 WHT BLU TEMPO WHT
  • 260721Z 26013KT 9999 FEW018 SCT020 BKN030 09/05 Q1017 WHT BLU TEMPO WHT
  • 260655Z 25012KT 9999 FEW017 SCT025 BKN030 09/05 Q1017 BLU BLU TEMPO WHT
  • 260625Z 25012KT 9999 FEW016 SCT018 BKN020 09/05 Q1017 WHT WHT BECMG BLU

TAF TAF EBBE
Valid from the 26 at 07:00 until the 26 at 16:00 UTC


260541Z 2607/2616 25015G25KT 9999 FEW018 SCT020 BKN025
BECMG 2607/2609 SCT025
PROB30
TEMPO 2612/2616 9000 -SHRA FEW020 SCT025
No reported NOTAMs for that airfield.



MET'MAP, your aeronautical weather chart ! - Copyright ORBIFLY December 2007 - Disclaimer

ORBIFLY MET'MAP TEAM :

Programming & Development : Alexandra Zaïnal
Concept & Development : Baudouin d'Aumeries
Co-Development & Prog : Marc-Olivier Méhu
Technical & hardware support : Manuel Goepfert

Contact : metmap@orbifly.com




SOURCES & CREDITS :

   NOAA